createdAt,value
2022-11-12T00:00:45.561Z,72.90
2022-11-12T00:03:12.208Z,73.10
2022-11-12T00:05:38.936Z,73.10
2022-11-12T00:08:05.868Z,73.00
2022-11-12T00:10:32.690Z,73.10
2022-11-12T00:12:59.691Z,73.10
2022-11-12T00:15:26.700Z,73.20
2022-11-12T00:17:53.553Z,73.20
2022-11-12T00:20:20.282Z,73.20
2022-11-12T00:22:46.961Z,73.20
2022-11-12T00:25:13.852Z,73.20
2022-11-12T00:27:40.551Z,73.10
2022-11-12T00:30:07.570Z,73.20
2022-11-12T00:32:37.304Z,73.00
2022-11-12T00:35:11.143Z,72.90
2022-11-12T00:37:40.578Z,73.00
2022-11-12T00:40:08.109Z,73.00
2022-11-12T00:42:34.840Z,73.00
2022-11-12T00:45:01.629Z,73.30
2022-11-12T00:47:28.373Z,73.20
2022-11-12T00:49:55.419Z,73.00
2022-11-12T00:52:22.139Z,72.90
2022-11-12T00:54:48.882Z,73.10
2022-11-12T00:57:15.564Z,73.00
2022-11-12T00:59:42.364Z,73.10
2022-11-12T01:02:09.131Z,73.20
2022-11-12T01:04:35.959Z,73.20
2022-11-12T01:07:02.668Z,73.00
2022-11-12T01:09:29.495Z,72.90
2022-11-12T01:11:56.168Z,72.80
2022-11-12T01:14:22.860Z,72.80
2022-11-12T01:16:49.707Z,73.00
2022-11-12T01:19:16.448Z,72.90
2022-11-12T01:21:43.933Z,72.90
2022-11-12T01:24:11.084Z,72.70
2022-11-12T01:26:38.307Z,72.70
2022-11-12T01:29:05.054Z,72.50
2022-11-12T01:31:35.934Z,72.50
2022-11-12T01:34:07.464Z,72.80
2022-11-12T01:36:38.860Z,73.10
2022-11-12T01:39:06.448Z,73.00
2022-11-12T01:41:34.972Z,72.70
2022-11-12T01:44:16.815Z,72.50
2022-11-12T01:47:04.150Z,72.90
2022-11-12T01:49:38.765Z,73.10
2022-11-12T01:52:45.237Z,73.00
2022-11-12T01:55:17.330Z,72.90
2022-11-12T01:57:49.000Z,72.70
2022-11-12T02:00:16.245Z,72.90
2022-11-12T02:02:44.256Z,73.00
2022-11-12T02:05:11.331Z,73.10
2022-11-12T02:07:39.393Z,73.00
2022-11-12T02:10:06.775Z,72.70
2022-11-12T02:12:52.317Z,72.90
2022-11-12T02:15:19.019Z,72.90
2022-11-12T02:17:45.697Z,73.10
2022-11-12T02:20:12.790Z,73.00
2022-11-12T02:22:39.545Z,73.10
2022-11-12T02:25:07.083Z,72.80
2022-11-12T02:27:34.016Z,72.90
2022-11-12T02:30:00.754Z,73.00
2022-11-12T02:32:27.412Z,73.00
2022-11-12T02:34:54.230Z,72.90
2022-11-12T02:37:20.931Z,73.00
2022-11-12T02:39:47.608Z,72.90
2022-11-12T02:42:14.302Z,72.60
2022-11-12T02:44:41.020Z,72.50
2022-11-12T02:47:07.715Z,72.90
2022-11-12T02:49:34.465Z,73.10
2022-11-12T02:52:01.159Z,73.30
2022-11-12T02:54:27.880Z,73.50
2022-11-12T02:56:54.572Z,74.10
2022-11-12T02:59:21.310Z,73.40
2022-11-12T03:01:48.051Z,73.50
2022-11-12T03:04:14.908Z,73.50
2022-11-12T03:06:42.579Z,74.20
2022-11-12T03:09:10.904Z,73.40
2022-11-12T03:11:37.616Z,73.50
2022-11-12T03:14:04.357Z,73.70
2022-11-12T03:16:31.089Z,73.40
2022-11-12T03:18:57.819Z,73.10
2022-11-12T03:21:24.524Z,73.10
2022-11-12T03:23:51.241Z,73.00
2022-11-12T03:26:17.899Z,73.10
2022-11-12T03:28:44.640Z,73.00
2022-11-12T03:31:12.014Z,72.90
2022-11-12T03:33:38.743Z,73.00
2022-11-12T03:36:05.709Z,73.00
2022-11-12T03:38:32.441Z,73.10
2022-11-12T03:40:59.202Z,73.30
2022-11-12T03:43:25.989Z,73.00
2022-11-12T03:45:52.646Z,73.00
2022-11-12T03:48:19.316Z,73.80
2022-11-12T03:50:46.058Z,73.00
2022-11-12T03:53:12.859Z,72.90
2022-11-12T03:55:39.534Z,72.80
2022-11-12T03:58:06.408Z,72.80
2022-11-12T04:00:33.250Z,72.70
2022-11-12T04:03:00.072Z,72.70
2022-11-12T04:05:45.582Z,72.60
2022-11-12T04:08:37.923Z,72.40
2022-11-12T04:11:16.014Z,72.60
2022-11-12T04:13:43.404Z,72.50
2022-11-12T04:16:34.290Z,72.50
2022-11-12T04:19:19.847Z,72.50
2022-11-12T04:21:51.165Z,72.60
2022-11-12T04:24:42.496Z,72.90
2022-11-12T04:27:11.242Z,72.80
2022-11-12T04:29:56.248Z,72.90
2022-11-12T04:32:23.010Z,72.80
2022-11-12T04:34:49.839Z,72.80
2022-11-12T04:37:20.979Z,72.80
2022-11-12T04:39:50.112Z,72.90
2022-11-12T04:42:35.377Z,72.80
2022-11-12T04:45:05.087Z,72.70
2022-11-12T04:47:34.197Z,72.60
2022-11-12T04:50:01.267Z,72.80
2022-11-12T04:52:28.333Z,72.90
2022-11-12T04:54:55.163Z,72.90
2022-11-12T04:57:22.033Z,72.70
2022-11-12T04:59:48.773Z,72.60
2022-11-12T05:02:16.624Z,72.50
2022-11-12T05:04:43.549Z,72.60
2022-11-12T05:07:10.555Z,73.50
2022-11-12T05:09:37.356Z,72.80
2022-11-12T05:12:04.179Z,72.60
2022-11-12T05:14:30.925Z,72.50
2022-11-12T05:16:57.596Z,72.60
2022-11-12T05:19:24.338Z,72.70
2022-11-12T05:22:05.808Z,72.50
2022-11-12T05:24:42.083Z,72.50
2022-11-12T05:27:17.033Z,72.50
2022-11-12T05:29:43.758Z,72.50
2022-11-12T05:32:15.015Z,72.50
2022-11-12T05:34:41.813Z,72.50
2022-11-12T05:37:09.283Z,72.30
2022-11-12T05:39:36.084Z,72.30
2022-11-12T05:42:17.849Z,72.40
2022-11-12T05:44:44.551Z,72.30
2022-11-12T05:47:11.310Z,72.40
2022-11-12T05:49:38.023Z,72.10
2022-11-12T05:52:04.839Z,72.20
2022-11-12T05:54:31.581Z,72.40
2022-11-12T05:56:58.271Z,72.60
2022-11-12T05:59:24.965Z,72.50
2022-11-12T06:01:52.288Z,73.30
2022-11-12T06:04:19.073Z,72.60
2022-11-12T06:06:45.800Z,72.50
2022-11-12T06:09:12.644Z,72.30
2022-11-12T06:11:39.380Z,72.20
2022-11-12T06:14:06.162Z,72.10
2022-11-12T06:16:32.951Z,72.20
2022-11-12T06:18:59.630Z,72.20
2022-11-12T06:21:27.767Z,71.90
2022-11-12T06:23:58.968Z,72.00
2022-11-12T06:26:26.894Z,71.90
2022-11-12T06:28:53.732Z,72.00
2022-11-12T06:31:20.611Z,72.20
2022-11-12T06:33:47.887Z,72.10
2022-11-12T06:36:16.129Z,72.30
2022-11-12T06:38:42.952Z,72.10
2022-11-12T06:41:10.520Z,72.10
2022-11-12T06:43:37.321Z,72.20
2022-11-12T06:46:14.189Z,73.10
2022-11-12T06:48:42.047Z,72.20
2022-11-12T06:51:11.080Z,72.20
2022-11-12T06:53:37.848Z,72.10
2022-11-12T06:56:05.676Z,72.80
2022-11-12T06:58:32.460Z,72.30
2022-11-12T07:01:11.450Z,72.20
2022-11-12T07:03:39.277Z,72.20
2022-11-12T07:06:10.718Z,73.10
2022-11-12T07:08:37.902Z,72.40
2022-11-12T07:11:05.691Z,72.50
2022-11-12T07:13:33.083Z,72.60
2022-11-12T07:16:00.168Z,72.60
2022-11-12T07:18:27.592Z,72.60
2022-11-12T07:21:08.416Z,72.60
2022-11-12T07:23:35.779Z,72.80
2022-11-12T07:26:03.310Z,72.90
2022-11-12T07:28:30.364Z,73.00
2022-11-12T07:31:01.235Z,73.20
2022-11-12T07:33:28.156Z,73.20
2022-11-12T07:36:02.647Z,73.30
2022-11-12T07:38:30.253Z,73.50
2022-11-12T07:41:05.589Z,73.50
2022-11-12T07:43:35.926Z,73.60
2022-11-12T07:46:10.302Z,74.40
2022-11-12T07:48:37.868Z,73.70
2022-11-12T07:51:13.949Z,73.70
2022-11-12T07:53:41.425Z,73.70
2022-11-12T07:56:09.653Z,73.50
2022-11-12T07:58:36.460Z,73.70
2022-11-12T08:01:26.085Z,73.80
2022-11-12T08:03:52.801Z,73.70
2022-11-12T08:06:19.489Z,73.90
2022-11-12T08:08:46.337Z,73.90
2022-11-12T08:11:13.013Z,73.90
2022-11-12T08:13:39.704Z,73.90
2022-11-12T08:16:06.693Z,74.10
2022-11-12T08:18:34.211Z,74.10
2022-11-12T08:21:01.839Z,74.20
2022-11-12T08:23:28.951Z,74.40
2022-11-12T08:26:02.834Z,75.20
2022-11-12T08:28:30.300Z,74.30
2022-11-12T08:30:57.375Z,74.50
2022-11-12T08:33:24.149Z,74.40
2022-11-12T08:35:50.992Z,74.40
2022-11-12T08:38:17.955Z,74.50
2022-11-12T08:40:44.684Z,74.50
2022-11-12T08:43:11.768Z,74.50
2022-11-12T08:45:39.705Z,74.60
2022-11-12T08:48:07.938Z,74.60
2022-11-12T08:50:34.739Z,74.60
2022-11-12T08:53:02.200Z,74.80
2022-11-12T08:55:29.757Z,74.90
2022-11-12T08:57:59.256Z,75.10
2022-11-12T09:00:25.917Z,75.30
2022-11-12T09:02:52.608Z,75.30
2022-11-12T09:05:19.332Z,75.50
2022-11-12T09:07:50.578Z,75.50
2022-11-12T09:10:17.986Z,75.70
2022-11-12T09:12:44.633Z,75.60
2022-11-12T09:18:02.503Z,75.70
2022-11-12T09:20:29.811Z,75.80
2022-11-12T09:23:07.465Z,76.00
2022-11-12T09:25:34.488Z,76.10
2022-11-12T09:28:17.712Z,76.00
2022-11-12T09:30:46.737Z,75.90
2022-11-12T09:33:18.152Z,76.10
2022-11-12T09:35:45.708Z,76.20
2022-11-12T09:38:14.691Z,76.20
2022-11-12T09:40:53.433Z,76.20
2022-11-12T09:43:34.705Z,76.50
2022-11-12T09:46:38.686Z,76.50
2022-11-12T09:49:06.955Z,76.60
2022-11-12T09:51:39.597Z,76.50
2022-11-12T09:54:16.981Z,76.80
2022-11-12T09:56:43.685Z,76.80
2022-11-12T09:59:13.647Z,76.90
2022-11-12T10:01:58.613Z,76.90
2022-11-12T10:04:53.111Z,76.90
2022-11-12T10:07:47.666Z,76.70
2022-11-12T10:10:32.367Z,76.70
2022-11-12T10:13:20.192Z,76.90
2022-11-12T10:16:24.312Z,76.60
2022-11-12T10:19:00.205Z,76.60
2022-11-12T10:21:58.056Z,76.60
2022-11-12T10:24:25.988Z,76.50
2022-11-12T10:26:52.812Z,76.60
2022-11-12T10:29:36.463Z,76.60
2022-11-12T10:32:03.470Z,76.40
2022-11-12T10:34:31.294Z,76.30
2022-11-12T10:37:03.857Z,76.30
2022-11-12T10:39:31.457Z,76.30
2022-11-12T10:42:06.643Z,76.40
2022-11-12T10:44:33.473Z,76.50
2022-11-12T10:47:23.304Z,76.50
2022-11-12T10:50:03.583Z,76.40
2022-11-12T10:52:30.411Z,76.50
2022-11-12T10:55:17.938Z,77.20
2022-11-12T10:57:44.784Z,76.30
2022-11-12T11:00:14.855Z,76.40
2022-11-12T11:02:54.230Z,76.10
2022-11-12T11:05:37.558Z,76.20
2022-11-12T11:08:04.811Z,76.20
2022-11-12T11:10:33.381Z,76.00
2022-11-12T11:13:29.483Z,76.00
2022-11-12T11:16:06.603Z,76.00
2022-11-12T11:18:35.117Z,76.20
2022-11-12T11:21:16.269Z,76.00
2022-11-12T11:24:10.588Z,75.90
2022-11-12T11:27:01.674Z,75.80
2022-11-12T11:29:50.564Z,74.60
2022-11-12T11:32:56.335Z,74.10
2022-11-12T11:35:37.631Z,74.20
2022-11-12T11:38:29.029Z,74.30
2022-11-12T11:41:17.036Z,74.30
2022-11-12T11:44:11.267Z,74.20
2022-11-12T11:46:45.502Z,74.20
2022-11-12T11:49:48.731Z,73.80
2022-11-12T11:52:46.854Z,73.10
2022-11-12T11:55:28.913Z,73.40
2022-11-12T11:58:16.029Z,72.80
2022-11-12T12:01:00.110Z,72.50
2022-11-12T12:04:06.365Z,72.40
2022-11-12T12:06:37.477Z,72.70
2022-11-12T12:09:43.016Z,72.70
2022-11-12T12:12:23.813Z,72.60
2022-11-12T12:14:57.332Z,72.80
2022-11-12T12:18:01.116Z,72.80
2022-11-12T12:20:48.486Z,72.60
2022-11-12T12:23:29.103Z,72.80
2022-11-12T12:26:00.408Z,72.60
2022-11-12T12:28:39.159Z,73.00
2022-11-12T12:31:09.671Z,72.70
2022-11-12T12:34:02.632Z,72.50
2022-11-12T12:36:36.415Z,72.20
2022-11-12T12:39:23.323Z,71.00
2022-11-12T12:42:00.772Z,70.70
2022-11-12T12:44:49.824Z,70.70
2022-11-12T12:47:16.531Z,69.80
2022-11-12T12:49:43.214Z,68.60
2022-11-12T12:52:13.169Z,68.80
2022-11-12T12:54:42.683Z,68.00
2022-11-12T12:57:32.168Z,67.70
2022-11-12T13:00:29.430Z,67.70
2022-11-12T13:02:56.325Z,67.80
2022-11-12T13:05:34.750Z,66.80
2022-11-12T13:08:14.540Z,66.30
2022-11-12T13:10:50.801Z,67.00
2022-11-12T13:13:17.441Z,66.10
2022-11-12T13:15:44.909Z,66.10
2022-11-12T13:18:17.012Z,65.50
2022-11-12T13:20:44.044Z,65.40
2022-11-12T13:23:12.125Z,65.10
2022-11-12T13:25:38.937Z,64.60
2022-11-12T13:28:14.612Z,64.80
2022-11-12T13:30:41.278Z,64.60
2022-11-12T13:33:21.444Z,64.60
2022-11-12T13:35:48.274Z,64.70
2022-11-12T13:38:15.882Z,64.40
2022-11-12T13:41:02.866Z,64.20
2022-11-12T13:43:42.762Z,64.20
2022-11-12T13:46:12.176Z,64.50
2022-11-12T13:48:46.439Z,64.50
2022-11-12T13:51:20.661Z,65.00
2022-11-12T13:53:47.449Z,65.80
2022-11-12T13:56:26.587Z,65.10
2022-11-12T13:58:53.243Z,65.30
2022-11-12T14:01:20.855Z,65.00
2022-11-12T14:03:49.326Z,65.00
2022-11-12T14:06:35.991Z,65.00
2022-11-12T14:09:23.715Z,65.40
2022-11-12T14:12:14.968Z,65.40
2022-11-12T14:14:44.459Z,65.40
2022-11-12T14:17:26.147Z,65.50
2022-11-12T14:19:55.926Z,65.50
2022-11-12T14:22:22.893Z,65.90
2022-11-12T14:24:54.246Z,67.00
2022-11-12T14:27:31.330Z,66.30
2022-11-12T14:30:23.296Z,66.10
2022-11-12T14:32:57.989Z,66.00
2022-11-12T14:35:32.014Z,66.30
2022-11-12T14:37:58.699Z,66.50
2022-11-12T14:40:26.737Z,66.60
2022-11-12T14:42:53.441Z,66.40
2022-11-12T14:45:21.165Z,66.50
2022-11-12T14:47:49.111Z,66.50
2022-11-12T14:50:25.206Z,66.50
2022-11-12T14:53:05.146Z,66.50
2022-11-12T14:55:33.773Z,66.50
2022-11-12T14:58:00.863Z,66.30
2022-11-12T15:00:30.758Z,66.20
2022-11-12T15:03:01.344Z,66.10
2022-11-12T15:05:28.208Z,66.20
2022-11-12T15:07:59.798Z,66.50
2022-11-12T15:10:43.341Z,66.50
2022-11-12T15:13:10.788Z,66.50
2022-11-12T15:15:39.003Z,66.40
2022-11-12T15:18:19.521Z,66.60
2022-11-12T15:20:46.198Z,66.70
2022-11-12T15:23:19.261Z,66.70
2022-11-12T15:25:45.937Z,66.90
2022-11-12T15:28:23.578Z,66.80
2022-11-12T15:31:17.519Z,66.60
2022-11-12T15:33:44.268Z,66.60
2022-11-12T15:36:18.661Z,66.70
2022-11-12T15:38:54.765Z,66.60
2022-11-12T15:41:29.393Z,66.60
2022-11-12T15:43:56.350Z,66.60
2022-11-12T15:46:23.089Z,66.80
2022-11-12T15:48:55.533Z,66.60
2022-11-12T15:51:22.805Z,66.50
2022-11-12T15:53:49.616Z,66.30
2022-11-12T15:56:18.352Z,66.20
2022-11-12T15:58:45.076Z,67.30
2022-11-12T16:01:11.776Z,67.10
2022-11-12T16:03:38.567Z,67.20
2022-11-12T16:06:09.038Z,67.30
2022-11-12T16:08:36.085Z,67.10
2022-11-12T16:11:03.058Z,67.10
2022-11-12T16:13:36.101Z,67.20
2022-11-12T16:16:04.750Z,67.10
2022-11-12T16:18:31.478Z,66.50
2022-11-12T16:20:58.197Z,66.60
2022-11-12T16:23:25.335Z,67.00
2022-11-12T16:25:52.259Z,67.00
2022-11-12T16:28:19.093Z,66.80
2022-11-12T16:30:46.332Z,66.70
2022-11-12T16:33:13.370Z,66.60
2022-11-12T16:35:40.129Z,66.90
2022-11-12T16:38:14.844Z,67.00
2022-11-12T16:40:41.794Z,67.10
2022-11-12T16:43:08.632Z,67.00
2022-11-12T16:45:37.873Z,66.90
2022-11-12T16:48:12.478Z,66.80
2022-11-12T16:50:39.168Z,66.70
2022-11-12T16:53:05.924Z,66.50
2022-11-12T16:55:32.642Z,66.50
2022-11-12T16:57:59.404Z,66.60
2022-11-12T17:00:26.208Z,66.50
2022-11-12T17:02:53.640Z,66.50
2022-11-12T17:05:24.425Z,66.50
2022-11-12T17:07:55.434Z,66.60
2022-11-12T17:10:25.393Z,66.30
2022-11-12T17:12:52.447Z,66.00
2022-11-12T17:15:19.142Z,66.00
2022-11-12T17:17:46.080Z,67.20
2022-11-12T17:20:12.798Z,66.30
2022-11-12T17:22:39.534Z,66.50
2022-11-12T17:25:06.893Z,66.50
2022-11-12T17:27:33.647Z,66.40
2022-11-12T17:30:00.335Z,66.30
2022-11-12T17:32:27.099Z,66.20
2022-11-12T17:34:53.851Z,66.00
2022-11-12T17:37:20.527Z,66.10
2022-11-12T17:39:47.246Z,66.20
2022-11-12T17:42:13.955Z,66.30
2022-11-12T17:44:40.687Z,65.90
2022-11-12T17:47:07.430Z,65.60
2022-11-12T17:49:34.083Z,65.50
2022-11-12T17:52:00.768Z,65.60
2022-11-12T17:54:27.444Z,65.80
2022-11-12T17:56:54.198Z,65.70
2022-11-12T17:59:20.986Z,65.60
2022-11-12T18:01:47.653Z,66.00
2022-11-12T18:04:14.363Z,65.90
2022-11-12T18:06:41.266Z,65.80
2022-11-12T18:09:11.961Z,65.70
2022-11-12T18:11:44.643Z,65.90
2022-11-12T18:14:11.527Z,66.00
2022-11-12T18:16:38.212Z,65.90
2022-11-12T18:19:05.120Z,66.00
2022-11-12T18:21:31.806Z,65.90
2022-11-12T18:23:58.529Z,65.70
2022-11-12T18:26:25.320Z,65.70
2022-11-12T18:28:52.468Z,65.50
2022-11-12T18:31:19.316Z,65.10
2022-11-12T18:33:46.015Z,65.20
2022-11-12T18:36:14.835Z,65.50
2022-11-12T18:38:41.599Z,65.50
2022-11-12T18:41:12.846Z,65.70
2022-11-12T18:43:39.705Z,65.70
2022-11-12T18:46:06.722Z,65.80
2022-11-12T18:48:34.095Z,65.90
2022-11-12T18:51:02.185Z,66.00
2022-11-12T18:53:29.481Z,65.90
2022-11-12T18:55:58.730Z,65.70
2022-11-12T18:58:29.414Z,65.70
2022-11-12T19:01:04.614Z,65.40
2022-11-12T19:03:31.319Z,65.60
2022-11-12T19:05:58.950Z,65.70
2022-11-12T19:08:26.547Z,65.90
2022-11-12T19:11:04.598Z,65.60
2022-11-12T19:13:31.592Z,65.30
2022-11-12T19:16:10.689Z,65.20
2022-11-12T19:18:37.820Z,65.50
2022-11-12T19:21:15.874Z,65.30
2022-11-12T19:23:43.114Z,66.20
2022-11-12T19:26:12.348Z,65.40
2022-11-12T19:28:39.134Z,65.50
2022-11-12T19:31:06.955Z,65.60
2022-11-12T19:33:34.028Z,66.50
2022-11-12T19:36:06.684Z,65.50
2022-11-12T19:38:33.685Z,65.40
2022-11-12T19:41:07.908Z,65.40
2022-11-12T19:43:34.690Z,65.20
2022-11-12T19:46:01.439Z,65.20
2022-11-12T19:48:28.424Z,65.40
2022-11-12T19:50:56.789Z,65.50
2022-11-12T19:53:23.559Z,65.50
2022-11-12T19:55:50.280Z,65.50
2022-11-12T19:58:17.037Z,65.60
2022-11-12T20:00:43.751Z,65.60
2022-11-12T20:03:10.467Z,65.60
2022-11-12T20:05:37.194Z,66.60
2022-11-12T20:08:05.444Z,65.50
2022-11-12T20:10:32.480Z,65.40
2022-11-12T20:12:59.455Z,65.40
2022-11-12T20:15:26.231Z,65.20
2022-11-12T20:17:53.078Z,65.60
2022-11-12T20:20:19.809Z,66.00
2022-11-12T20:22:46.553Z,66.20
2022-11-12T20:25:13.258Z,66.00
2022-11-12T20:27:39.976Z,65.50
2022-11-12T20:30:07.583Z,65.20
2022-11-12T20:32:34.294Z,65.40
2022-11-12T20:35:01.007Z,65.70
2022-11-12T20:37:29.653Z,65.80
2022-11-12T20:39:56.661Z,66.00
2022-11-12T20:42:23.538Z,66.00
2022-11-12T20:44:50.271Z,66.10
2022-11-12T20:47:16.945Z,66.20
2022-11-12T20:49:43.741Z,66.30
2022-11-12T20:52:10.568Z,66.50
2022-11-12T20:54:37.337Z,66.40
2022-11-12T20:57:04.120Z,66.00
2022-11-12T20:59:30.945Z,65.90
2022-11-12T21:01:57.774Z,65.80
2022-11-12T21:04:24.709Z,66.20
2022-11-12T21:06:51.608Z,65.70
2022-11-12T21:09:18.727Z,65.40
2022-11-12T21:11:45.432Z,65.60
2022-11-12T21:14:12.350Z,65.70
2022-11-12T21:16:39.121Z,65.80
2022-11-12T21:19:05.941Z,66.00
2022-11-12T21:21:32.652Z,65.90
2022-11-12T21:24:03.556Z,65.90
2022-11-12T21:26:31.685Z,65.70
2022-11-12T21:28:58.378Z,65.80
2022-11-12T21:31:26.586Z,65.90
2022-11-12T21:34:00.649Z,66.00
2022-11-12T21:36:27.783Z,66.20
2022-11-12T21:38:54.568Z,66.20
2022-11-12T21:41:26.405Z,66.10
2022-11-12T21:43:53.292Z,66.00
2022-11-12T21:46:21.905Z,66.60
2022-11-12T21:48:54.857Z,67.00
2022-11-12T21:51:26.509Z,67.00
2022-11-12T21:54:00.162Z,66.60
2022-11-12T21:56:27.144Z,66.50
2022-11-12T21:58:55.982Z,66.60
2022-11-12T22:01:25.186Z,66.70
2022-11-12T22:03:52.666Z,66.90
2022-11-12T22:06:19.954Z,67.10
2022-11-12T22:08:46.716Z,67.60
2022-11-12T22:11:15.029Z,67.40
2022-11-12T22:13:42.134Z,67.20
2022-11-12T22:16:13.650Z,66.80
2022-11-12T22:18:40.722Z,67.20
2022-11-12T22:21:09.752Z,66.70
2022-11-12T22:23:36.596Z,67.40
2022-11-12T22:26:08.808Z,67.60
2022-11-12T22:28:35.579Z,67.70
2022-11-12T22:31:07.580Z,67.70
2022-11-12T22:33:34.858Z,67.60
2022-11-12T22:36:02.900Z,67.70
2022-11-12T22:38:49.996Z,67.80
2022-11-12T22:41:27.340Z,67.90
2022-11-12T22:43:56.137Z,68.80
2022-11-12T22:46:27.384Z,68.00
2022-11-12T22:48:54.442Z,68.70
2022-11-12T22:51:22.686Z,68.00
2022-11-12T22:53:53.105Z,67.90
2022-11-12T22:56:19.766Z,67.90
2022-11-12T22:58:47.028Z,68.00
2022-11-12T23:01:22.636Z,68.10
2022-11-12T23:03:49.990Z,68.00
2022-11-12T23:06:16.940Z,68.10
2022-11-12T23:08:43.714Z,68.20
2022-11-12T23:11:12.376Z,68.50
2022-11-12T23:13:39.184Z,68.50
2022-11-12T23:16:11.370Z,68.70
2022-11-12T23:18:38.087Z,68.40
2022-11-12T23:21:10.952Z,68.30
2022-11-12T23:23:37.840Z,68.20
2022-11-12T23:26:10.016Z,68.30
2022-11-12T23:28:36.839Z,68.30
2022-11-12T23:31:04.291Z,68.60
2022-11-12T23:33:31.165Z,68.80
2022-11-12T23:36:07.807Z,68.80
2022-11-12T23:38:34.644Z,68.50
2022-11-12T23:41:01.601Z,68.60
2022-11-12T23:43:28.327Z,68.70
2022-11-12T23:45:55.199Z,68.50
2022-11-12T23:48:21.986Z,68.60
2022-11-12T23:50:49.941Z,68.60
2022-11-12T23:53:16.880Z,69.30
2022-11-12T23:55:43.865Z,68.60
2022-11-12T23:58:10.724Z,68.50
